sensor_id;sensor_type;location;lat;lon;timestamp;pressure;altitude;pressure_sealevel;temperature;humidity
57894;BME280;43710;47.460;19.034;2022-07-29T03:48:20;100445.03;;;24.56;47.58
57894;BME280;43710;47.460;19.034;2022-07-29T03:51:25;100445.03;;;24.56;47.58
57894;BME280;43710;47.460;19.034;2022-07-29T03:54:35;100459.69;;;24.11;48.72
57894;BME280;43710;47.460;19.034;2022-07-29T03:57:38;100455.47;;;24.17;48.41
57894;BME280;43710;47.460;19.034;2022-07-29T04:00:42;100463.59;;;24.10;48.65
57894;BME280;43710;47.460;19.034;2022-07-29T04:03:45;100454.84;;;24.27;47.98
57894;BME280;43710;47.460;19.034;2022-07-29T04:06:48;100459.56;;;24.30;48.26
57894;BME280;43710;47.460;19.034;2022-07-29T04:09:50;100463.41;;;24.26;48.52
57894;BME280;43710;47.460;19.034;2022-07-29T04:12:52;100464.72;;;24.35;48.32
57894;BME280;43710;47.460;19.034;2022-07-29T04:15:55;100467.56;;;24.43;48.38
57894;BME280;43710;47.460;19.034;2022-07-29T04:18:57;100462.22;;;24.53;47.93
57894;BME280;43710;47.460;19.034;2022-07-29T04:22:00;100468.50;;;24.54;47.76
57894;BME280;43710;47.460;19.034;2022-07-29T04:25:03;100458.31;;;24.51;47.88
57894;BME280;43710;47.460;19.034;2022-07-29T04:28:06;100455.56;;;24.51;48.02
57894;BME280;43710;47.460;19.034;2022-07-29T04:31:09;100464.91;;;24.50;48.04
57894;BME280;43710;47.460;19.034;2022-07-29T04:34:12;100465.03;;;24.57;48.03
57894;BME280;43710;47.460;19.034;2022-07-29T04:37:15;100458.84;;;24.64;47.88
57894;BME280;43710;47.460;19.034;2022-07-29T04:40:17;100457.63;;;24.61;48.28
57894;BME280;43710;47.460;19.034;2022-07-29T04:43:19;100459.25;;;24.66;48.37
57894;BME280;43710;47.460;19.034;2022-07-29T04:46:24;100462.44;;;24.71;48.29
57894;BME280;43710;47.460;19.034;2022-07-29T04:49:26;100465.91;;;24.65;48.69
57894;BME280;43710;47.460;19.034;2022-07-29T04:52:30;100463.06;;;24.57;49.11
57894;BME280;43710;47.460;19.034;2022-07-29T04:55:32;100461.94;;;24.62;48.77
57894;BME280;43710;47.460;19.034;2022-07-29T04:58:35;100464.41;;;24.71;48.80
57894;BME280;43710;47.460;19.034;2022-07-29T05:01:37;100461.94;;;24.62;48.97
57894;BME280;43710;47.460;19.034;2022-07-29T05:04:40;100467.13;;;24.67;49.39
57894;BME280;43710;47.460;19.034;2022-07-29T05:07:42;100464.06;;;24.76;48.92
57894;BME280;43710;47.460;19.034;2022-07-29T05:10:44;100470.00;;;24.81;48.75
57894;BME280;43710;47.460;19.034;2022-07-29T05:13:46;100473.19;;;24.83;49.18
57894;BME280;43710;47.460;19.034;2022-07-29T05:16:49;100471.66;;;24.90;48.99
57894;BME280;43710;47.460;19.034;2022-07-29T05:19:53;100474.00;;;24.88;49.24
57894;BME280;43710;47.460;19.034;2022-07-29T05:22:56;100468.59;;;24.95;49.28
57894;BME280;43710;47.460;19.034;2022-07-29T05:25:58;100476.47;;;25.00;49.41
57894;BME280;43710;47.460;19.034;2022-07-29T05:29:01;100471.09;;;25.11;49.18
57894;BME280;43710;47.460;19.034;2022-07-29T05:32:03;100467.37;;;25.29;49.25
57894;BME280;43710;47.460;19.034;2022-07-29T05:35:06;100471.37;;;25.39;48.80
57894;BME280;43710;47.460;19.034;2022-07-29T05:38:08;100470.63;;;25.42;48.53
57894;BME280;43710;47.460;19.034;2022-07-29T05:41:11;100466.81;;;25.50;48.37
57894;BME280;43710;47.460;19.034;2022-07-29T05:44:13;100464.56;;;25.63;47.89
57894;BME280;43710;47.460;19.034;2022-07-29T05:47:16;100467.72;;;25.69;47.68
57894;BME280;43710;47.460;19.034;2022-07-29T05:50:18;100478.72;;;25.72;47.83
57894;BME280;43710;47.460;19.034;2022-07-29T05:53:22;100470.66;;;25.90;47.59
57894;BME280;43710;47.460;19.034;2022-07-29T05:56:24;100471.84;;;25.93;46.62
57894;BME280;43710;47.460;19.034;2022-07-29T05:59:27;100475.88;;;26.10;46.50
57894;BME280;43710;47.460;19.034;2022-07-29T06:02:31;100475.13;;;26.13;45.98
57894;BME280;43710;47.460;19.034;2022-07-29T06:05:34;100477.94;;;26.27;45.02
57894;BME280;43710;47.460;19.034;2022-07-29T06:08:36;100487.03;;;26.42;44.71
57894;BME280;43710;47.460;19.034;2022-07-29T06:11:39;100481.88;;;26.30;43.65
57894;BME280;43710;47.460;19.034;2022-07-29T06:14:41;100483.44;;;26.31;44.85
57894;BME280;43710;47.460;19.034;2022-07-29T06:17:43;100479.12;;;26.26;44.17
57894;BME280;43710;47.460;19.034;2022-07-29T06:21:07;100484.59;;;26.22;44.39
57894;BME280;43710;47.460;19.034;2022-07-29T06:24:11;100485.78;;;26.25;44.66
57894;BME280;43710;47.460;19.034;2022-07-29T06:27:15;100487.00;;;26.35;43.97
57894;BME280;43710;47.460;19.034;2022-07-29T06:30:18;100485.16;;;26.50;43.82
57894;BME280;43710;47.460;19.034;2022-07-29T06:33:20;100487.19;;;26.67;43.61
57894;BME280;43710;47.460;19.034;2022-07-29T06:36:22;100490.34;;;26.69;43.24
57894;BME280;43710;47.460;19.034;2022-07-29T06:39:26;100495.47;;;26.74;43.63
57894;BME280;43710;47.460;19.034;2022-07-29T06:42:28;100493.12;;;26.76;43.36
57894;BME280;43710;47.460;19.034;2022-07-29T06:45:33;100498.56;;;26.65;42.68
57894;BME280;43710;47.460;19.034;2022-07-29T06:48:36;100489.53;;;26.65;43.56
57894;BME280;43710;47.460;19.034;2022-07-29T06:51:39;100497.09;;;26.86;42.90
57894;BME280;43710;47.460;19.034;2022-07-29T06:54:41;100495.53;;;26.96;44.51
57894;BME280;43710;47.460;19.034;2022-07-29T06:57:49;100497.53;;;27.09;43.02
57894;BME280;43710;47.460;19.034;2022-07-29T07:00:52;100488.91;;;27.14;42.32
57894;BME280;43710;47.460;19.034;2022-07-29T07:03:55;100485.75;;;27.12;42.29
57894;BME280;43710;47.460;19.034;2022-07-29T07:06:58;100488.13;;;27.25;42.08
57894;BME280;43710;47.460;19.034;2022-07-29T07:10:01;100492.47;;;27.29;42.01
57894;BME280;43710;47.460;19.034;2022-07-29T07:13:04;100492.09;;;27.38;43.80
57894;BME280;43710;47.460;19.034;2022-07-29T07:16:06;100494.87;;;27.52;41.30
57894;BME280;43710;47.460;19.034;2022-07-29T07:19:09;100489.72;;;27.58;41.53
57894;BME280;43710;47.460;19.034;2022-07-29T07:22:11;100490.91;;;27.64;41.71
57894;BME280;43710;47.460;19.034;2022-07-29T07:25:13;100484.22;;;27.51;41.47
57894;BME280;43710;47.460;19.034;2022-07-29T07:28:15;100481.47;;;27.54;41.83
57894;BME280;43710;47.460;19.034;2022-07-29T07:31:18;100486.19;;;27.57;42.12
57894;BME280;43710;47.460;19.034;2022-07-29T07:34:20;100484.63;;;27.67;41.43
57894;BME280;43710;47.460;19.034;2022-07-29T07:37:31;100474.81;;;27.80;41.45
57894;BME280;43710;47.460;19.034;2022-07-29T07:40:33;100478.75;;;27.86;41.98
57894;BME280;43710;47.460;19.034;2022-07-29T07:43:35;100478.31;;;28.02;41.16
57894;BME280;43710;47.460;19.034;2022-07-29T07:46:37;100469.25;;;28.13;41.05
57894;BME280;43710;47.460;19.034;2022-07-29T07:49:40;100479.84;;;28.18;41.02
57894;BME280;43710;47.460;19.034;2022-07-29T07:52:47;100479.06;;;28.17;40.87
57894;BME280;43710;47.460;19.034;2022-07-29T07:55:50;100482.59;;;28.25;40.75
57894;BME280;43710;47.460;19.034;2022-07-29T07:59:12;100479.44;;;28.23;40.46
57894;BME280;43710;47.460;19.034;2022-07-29T08:02:14;100475.47;;;28.31;40.31
57894;BME280;43710;47.460;19.034;2022-07-29T08:05:17;100479.81;;;28.32;41.02
57894;BME280;43710;47.460;19.034;2022-07-29T08:08:20;100468.38;;;28.37;40.79
57894;BME280;43710;47.460;19.034;2022-07-29T08:11:22;100464.84;;;28.44;40.83
57894;BME280;43710;47.460;19.034;2022-07-29T08:14:25;100468.81;;;28.39;40.82
57894;BME280;43710;47.460;19.034;2022-07-29T08:17:27;100473.09;;;28.47;41.06
57894;BME280;43710;47.460;19.034;2022-07-29T08:20:29;100472.28;;;28.54;41.38
57894;BME280;43710;47.460;19.034;2022-07-29T08:23:34;100467.56;;;28.58;40.42
57894;BME280;43710;47.460;19.034;2022-07-29T08:26:52;100467.09;;;28.67;40.99
57894;BME280;43710;47.460;19.034;2022-07-29T08:29:54;100459.62;;;28.64;40.34
57894;BME280;43710;47.460;19.034;2022-07-29T08:32:58;100465.09;;;28.71;40.41
57894;BME280;43710;47.460;19.034;2022-07-29T08:36:00;100459.59;;;28.67;39.97
57894;BME280;43710;47.460;19.034;2022-07-29T08:39:03;100462.38;;;28.64;40.34
57894;BME280;43710;47.460;19.034;2022-07-29T08:42:05;100456.50;;;28.62;40.31
57894;BME280;43710;47.460;19.034;2022-07-29T08:45:08;100453.75;;;28.58;39.89
57894;BME280;43710;47.460;19.034;2022-07-29T08:48:14;100460.09;;;28.51;40.08
57894;BME280;43710;47.460;19.034;2022-07-29T08:51:18;100459.25;;;28.62;40.33
57894;BME280;43710;47.460;19.034;2022-07-29T08:54:23;100448.53;;;28.71;40.17
57894;BME280;43710;47.460;19.034;2022-07-29T08:57:26;100446.53;;;28.82;40.11
57894;BME280;43710;47.460;19.034;2022-07-29T09:00:29;100444.09;;;28.95;40.00
57894;BME280;43710;47.460;19.034;2022-07-29T09:03:32;100444.50;;;28.90;39.79
57894;BME280;43710;47.460;19.034;2022-07-29T09:06:37;100438.56;;;29.02;38.77
57894;BME280;43710;47.460;19.034;2022-07-29T09:09:41;100438.94;;;29.00;38.88
57894;BME280;43710;47.460;19.034;2022-07-29T09:12:45;100447.22;;;29.04;38.81
57894;BME280;43710;47.460;19.034;2022-07-29T09:15:47;100445.25;;;29.05;38.20
57894;BME280;43710;47.460;19.034;2022-07-29T09:18:49;100439.59;;;29.22;37.89
57894;BME280;43710;47.460;19.034;2022-07-29T09:21:52;100436.75;;;29.30;37.78
57894;BME280;43710;47.460;19.034;2022-07-29T09:25:01;100432.00;;;29.37;37.42
57894;BME280;43710;47.460;19.034;2022-07-29T09:28:14;100431.06;;;29.51;36.95
57894;BME280;43710;47.460;19.034;2022-07-29T09:31:17;100434.16;;;29.57;36.95
57894;BME280;43710;47.460;19.034;2022-07-29T09:34:26;100432.12;;;29.68;36.85
57894;BME280;43710;47.460;19.034;2022-07-29T09:37:30;100425.75;;;29.75;36.46
57894;BME280;43710;47.460;19.034;2022-07-29T09:40:32;100420.63;;;29.73;37.00
57894;BME280;43710;47.460;19.034;2022-07-29T09:43:36;100413.50;;;29.76;35.45
57894;BME280;43710;47.460;19.034;2022-07-29T09:46:38;100412.28;;;29.80;37.14
57894;BME280;43710;47.460;19.034;2022-07-29T09:49:54;100409.06;;;29.85;35.34
57894;BME280;43710;47.460;19.034;2022-07-29T09:52:56;100408.66;;;29.83;35.50
57894;BME280;43710;47.460;19.034;2022-07-29T09:55:59;100396.75;;;29.93;35.48
57894;BME280;43710;47.460;19.034;2022-07-29T09:59:08;100400.19;;;30.01;35.41
57894;BME280;43710;47.460;19.034;2022-07-29T10:02:12;100398.12;;;30.09;34.90
57894;BME280;43710;47.460;19.034;2022-07-29T10:05:26;100393.75;;;30.11;34.65
57894;BME280;43710;47.460;19.034;2022-07-29T10:08:37;100388.91;;;30.23;35.88
57894;BME280;43710;47.460;19.034;2022-07-29T10:11:40;100393.25;;;30.24;33.88
57894;BME280;43710;47.460;19.034;2022-07-29T10:14:58;100404.75;;;30.18;33.86
57894;BME280;43710;47.460;19.034;2022-07-29T10:18:00;100396.03;;;30.16;33.00
57894;BME280;43710;47.460;19.034;2022-07-29T10:21:02;100391.03;;;30.08;33.46
57894;BME280;43710;47.460;19.034;2022-07-29T10:24:06;100388.66;;;30.06;33.54
57894;BME280;43710;47.460;19.034;2022-07-29T10:27:16;100381.03;;;30.17;34.11
57894;BME280;43710;47.460;19.034;2022-07-29T10:30:19;100381.81;;;30.22;33.59
57894;BME280;43710;47.460;19.034;2022-07-29T10:37:08;100374.16;;;30.33;34.63
57894;BME280;43710;47.460;19.034;2022-07-29T10:44:02;100378.28;;;30.48;32.68
57894;BME280;43710;47.460;19.034;2022-07-29T10:47:05;100375.72;;;30.34;32.76
57894;BME280;43710;47.460;19.034;2022-07-29T10:50:08;100365.66;;;30.20;33.13
57894;BME280;43710;47.460;19.034;2022-07-29T10:53:17;100363.56;;;30.28;32.47
57894;BME280;43710;47.460;19.034;2022-07-29T10:56:32;100360.69;;;30.35;32.83
57894;BME280;43710;47.460;19.034;2022-07-29T10:59:39;100359.37;;;30.43;33.33
57894;BME280;43710;47.460;19.034;2022-07-29T11:02:43;100353.44;;;30.45;32.27
57894;BME280;43710;47.460;19.034;2022-07-29T11:05:55;100354.50;;;30.54;31.85
57894;BME280;43710;47.460;19.034;2022-07-29T11:09:18;100344.00;;;30.69;31.88
57894;BME280;43710;47.460;19.034;2022-07-29T11:16:07;100349.88;;;30.98;30.67
57894;BME280;43710;47.460;19.034;2022-07-29T11:22:35;100340.44;;;30.96;31.75
57894;BME280;43710;47.460;19.034;2022-07-29T11:25:44;100337.12;;;31.04;30.00
57894;BME280;43710;47.460;19.034;2022-07-29T11:29:17;100337.38;;;31.13;30.58
57894;BME280;43710;47.460;19.034;2022-07-29T11:32:24;100333.53;;;31.07;29.77
57894;BME280;43710;47.460;19.034;2022-07-29T11:35:30;100321.75;;;31.03;30.02
57894;BME280;43710;47.460;19.034;2022-07-29T11:38:41;100315.41;;;31.03;30.04
57894;BME280;43710;47.460;19.034;2022-07-29T11:41:43;100309.03;;;31.06;30.43
57894;BME280;43710;47.460;19.034;2022-07-29T11:47:59;100305.31;;;31.16;30.14
57894;BME280;43710;47.460;19.034;2022-07-29T11:51:21;100301.78;;;31.12;29.89
57894;BME280;43710;47.460;19.034;2022-07-29T11:54:34;100300.63;;;31.13;30.12
57894;BME280;43710;47.460;19.034;2022-07-29T11:57:58;100299.56;;;31.27;30.08
57894;BME280;43710;47.460;19.034;2022-07-29T12:01:05;100308.00;;;31.43;30.20
57894;BME280;43710;47.460;19.034;2022-07-29T12:04:08;100306.84;;;31.41;31.35
57894;BME280;43710;47.460;19.034;2022-07-29T12:07:11;100296.53;;;31.41;29.32
57894;BME280;43710;47.460;19.034;2022-07-29T12:10:16;100308.25;;;31.49;30.40
57894;BME280;43710;47.460;19.034;2022-07-29T12:13:38;100303.59;;;31.46;29.92
57894;BME280;43710;47.460;19.034;2022-07-29T12:16:41;100299.75;;;31.40;30.08
57894;BME280;43710;47.460;19.034;2022-07-29T12:19:44;100298.16;;;31.39;30.25
57894;BME280;43710;47.460;19.034;2022-07-29T12:22:47;100295.84;;;31.37;30.25
57894;BME280;43710;47.460;19.034;2022-07-29T12:25:51;100292.41;;;31.29;29.44
57894;BME280;43710;47.460;19.034;2022-07-29T12:28:55;100287.41;;;31.21;30.57
57894;BME280;43710;47.460;19.034;2022-07-29T12:31:57;100279.66;;;31.32;29.45
57894;BME280;43710;47.460;19.034;2022-07-29T12:35:09;100267.09;;;31.27;29.46
57894;BME280;43710;47.460;19.034;2022-07-29T12:38:12;100268.66;;;31.28;30.55
57894;BME280;43710;47.460;19.034;2022-07-29T12:41:15;100269.09;;;31.27;30.77
57894;BME280;43710;47.460;19.034;2022-07-29T12:44:17;100255.84;;;31.38;29.42
57894;BME280;43710;47.460;19.034;2022-07-29T12:47:20;100255.59;;;31.29;29.24
57894;BME280;43710;47.460;19.034;2022-07-29T12:50:22;100253.00;;;31.42;31.18
57894;BME280;43710;47.460;19.034;2022-07-29T12:53:27;100249.31;;;31.48;30.16
57894;BME280;43710;47.460;19.034;2022-07-29T12:56:29;100249.53;;;31.38;30.13
57894;BME280;43710;47.460;19.034;2022-07-29T13:00:07;100244.00;;;31.38;30.00
57894;BME280;43710;47.460;19.034;2022-07-29T13:03:11;100247.75;;;31.47;30.02
57894;BME280;43710;47.460;19.034;2022-07-29T13:06:33;100241.38;;;31.50;29.60
57894;BME280;43710;47.460;19.034;2022-07-29T13:09:41;100233.53;;;31.45;29.49
57894;BME280;43710;47.460;19.034;2022-07-29T13:16:11;100230.78;;;31.45;29.21
57894;BME280;43710;47.460;19.034;2022-07-29T13:19:13;100221.75;;;31.41;29.10
57894;BME280;43710;47.460;19.034;2022-07-29T13:22:21;100219.34;;;31.43;28.23
57894;BME280;43710;47.460;19.034;2022-07-29T13:25:29;100211.25;;;31.52;28.94
57894;BME280;43710;47.460;19.034;2022-07-29T13:28:31;100209.66;;;31.51;29.48
57894;BME280;43710;47.460;19.034;2022-07-29T13:31:33;100210.31;;;31.59;29.23
57894;BME280;43710;47.460;19.034;2022-07-29T13:34:35;100210.50;;;31.68;29.95
57894;BME280;43710;47.460;19.034;2022-07-29T13:37:38;100201.84;;;31.66;29.23
57894;BME280;43710;47.460;19.034;2022-07-29T13:40:41;100191.25;;;31.61;29.56
57894;BME280;43710;47.460;19.034;2022-07-29T13:43:43;100198.94;;;31.73;29.83
57894;BME280;43710;47.460;19.034;2022-07-29T13:46:45;100199.00;;;31.70;29.45
57894;BME280;43710;47.460;19.034;2022-07-29T13:49:49;100197.22;;;31.79;29.31
57894;BME280;43710;47.460;19.034;2022-07-29T13:52:51;100191.66;;;31.79;28.97
57894;BME280;43710;47.460;19.034;2022-07-29T13:55:55;100191.91;;;31.85;28.81
57894;BME280;43710;47.460;19.034;2022-07-29T13:58:57;100193.37;;;31.73;29.24
57894;BME280;43710;47.460;19.034;2022-07-29T14:01:59;100181.72;;;31.62;28.91
57894;BME280;43710;47.460;19.034;2022-07-29T14:05:02;100184.25;;;31.56;28.94
57894;BME280;43710;47.460;19.034;2022-07-29T14:08:09;100178.41;;;31.51;29.07
57894;BME280;43710;47.460;19.034;2022-07-29T14:11:11;100170.81;;;31.55;29.01
57894;BME280;43710;47.460;19.034;2022-07-29T14:14:14;100172.22;;;31.63;29.23
57894;BME280;43710;47.460;19.034;2022-07-29T14:17:16;100172.44;;;31.72;28.77
57894;BME280;43710;47.460;19.034;2022-07-29T14:20:18;100160.22;;;31.86;28.67
57894;BME280;43710;47.460;19.034;2022-07-29T14:23:21;100158.13;;;31.74;28.84
57894;BME280;43710;47.460;19.034;2022-07-29T14:26:23;100160.28;;;31.66;29.13
57894;BME280;43710;47.460;19.034;2022-07-29T14:29:26;100157.94;;;31.65;28.85
57894;BME280;43710;47.460;19.034;2022-07-29T14:32:39;100155.44;;;31.70;29.11
